sensor_id;sensor_type;location;lat;lon;timestamp;temperature;humidity
16172;DHT22;8192;53.596;10.166;2022-10-16T00:02:23;13.10;99.90
16172;DHT22;8192;53.596;10.166;2022-10-16T00:04:50;13.00;99.90
16172;DHT22;8192;53.596;10.166;2022-10-16T00:07:26;14.20;99.90
16172;DHT22;8192;53.596;10.166;2022-10-16T00:10:03;12.90;99.90
16172;DHT22;8192;53.596;10.166;2022-10-16T00:12:30;12.90;99.90
16172;DHT22;8192;53.596;10.166;2022-10-16T00:14:57;12.80;99.90
16172;DHT22;8192;53.596;10.166;2022-10-16T00:17:25;12.80;99.90
16172;DHT22;8192;53.596;10.166;2022-10-16T00:19:55;12.70;99.90
16172;DHT22;8192;53.596;10.166;2022-10-16T00:22:24;13.50;99.90
16172;DHT22;8192;53.596;10.166;2022-10-16T00:25:10;12.50;99.90
16172;DHT22;8192;53.596;10.166;2022-10-16T00:27:39;12.60;99.90
16172;DHT22;8192;53.596;10.166;2022-10-16T00:33:29;12.50;99.90
16172;DHT22;8192;53.596;10.166;2022-10-16T00:35:57;12.50;99.90
16172;DHT22;8192;53.596;10.166;2022-10-16T00:38:26;12.40;99.90
16172;DHT22;8192;53.596;10.166;2022-10-16T00:40:54;12.50;99.90
16172;DHT22;8192;53.596;10.166;2022-10-16T00:43:37;13.40;99.90
16172;DHT22;8192;53.596;10.166;2022-10-16T00:46:09;13.70;99.90
16172;DHT22;8192;53.596;10.166;2022-10-16T00:48:37;13.70;99.90
16172;DHT22;8192;53.596;10.166;2022-10-16T00:51:06;12.40;99.90
16172;DHT22;8192;53.596;10.166;2022-10-16T00:53:35;12.10;99.90
16172;DHT22;8192;53.596;10.166;2022-10-16T00:56:04;12.20;99.90
16172;DHT22;8192;53.596;10.166;2022-10-16T00:58:31;12.20;99.90
16172;DHT22;8192;53.596;10.166;2022-10-16T01:00:58;12.20;99.90
16172;DHT22;8192;53.596;10.166;2022-10-16T01:03:27;12.20;99.90
16172;DHT22;8192;53.596;10.166;2022-10-16T01:06:04;12.10;99.90
16172;DHT22;8192;53.596;10.166;2022-10-16T01:08:44;12.20;99.90
16172;DHT22;8192;53.596;10.166;2022-10-16T01:11:19;12.80;99.90
16172;DHT22;8192;53.596;10.166;2022-10-16T01:13:55;12.60;99.90
16172;DHT22;8192;53.596;10.166;2022-10-16T01:16:38;11.40;99.90
16172;DHT22;8192;53.596;10.166;2022-10-16T01:19:15;12.10;99.90
16172;DHT22;8192;53.596;10.166;2022-10-16T01:21:47;13.70;99.90
16172;DHT22;8192;53.596;10.166;2022-10-16T01:24:27;12.10;99.90
16172;DHT22;8192;53.596;10.166;2022-10-16T01:27:09;12.10;99.90
16172;DHT22;8192;53.596;10.166;2022-10-16T01:29:42;12.10;99.90
16172;DHT22;8192;53.596;10.166;2022-10-16T01:32:18;12.00;99.90
16172;DHT22;8192;53.596;10.166;2022-10-16T01:34:50;12.00;99.90
16172;DHT22;8192;53.596;10.166;2022-10-16T01:37:33;12.20;99.90
16172;DHT22;8192;53.596;10.166;2022-10-16T01:40:06;13.40;99.90
16172;DHT22;8192;53.596;10.166;2022-10-16T01:42:40;12.10;99.90
16172;DHT22;8192;53.596;10.166;2022-10-16T01:45:10;14.00;99.90
16172;DHT22;8192;53.596;10.166;2022-10-16T01:47:39;12.00;99.90
16172;DHT22;8192;53.596;10.166;2022-10-16T01:50:08;12.40;99.90
16172;DHT22;8192;53.596;10.166;2022-10-16T01:52:39;11.80;99.90
16172;DHT22;8192;53.596;10.166;2022-10-16T01:55:10;13.00;99.90
16172;DHT22;8192;53.596;10.166;2022-10-16T01:57:44;14.10;99.90
16172;DHT22;8192;53.596;10.166;2022-10-16T02:00:14;11.60;99.90
16172;DHT22;8192;53.596;10.166;2022-10-16T02:02:45;13.00;99.90
16172;DHT22;8192;53.596;10.166;2022-10-16T02:05:18;11.50;99.90
16172;DHT22;8192;53.596;10.166;2022-10-16T02:07:47;11.50;99.90
16172;DHT22;8192;53.596;10.166;2022-10-16T02:10:15;12.80;99.90
16172;DHT22;8192;53.596;10.166;2022-10-16T02:12:50;11.40;99.90
16172;DHT22;8192;53.596;10.166;2022-10-16T02:15:17;12.00;99.90
16172;DHT22;8192;53.596;10.166;2022-10-16T02:17:44;11.40;99.90
16172;DHT22;8192;53.596;10.166;2022-10-16T02:20:11;13.00;99.90
16172;DHT22;8192;53.596;10.166;2022-10-16T02:22:42;11.60;99.90
16172;DHT22;8192;53.596;10.166;2022-10-16T02:25:13;12.10;99.90
16172;DHT22;8192;53.596;10.166;2022-10-16T02:27:48;11.40;99.90
16172;DHT22;8192;53.596;10.166;2022-10-16T02:30:21;12.70;99.90
16172;DHT22;8192;53.596;10.166;2022-10-16T02:32:52;11.40;99.90
16172;DHT22;8192;53.596;10.166;2022-10-16T02:35:21;11.30;99.90
16172;DHT22;8192;53.596;10.166;2022-10-16T02:37:50;10.90;99.90
16172;DHT22;8192;53.596;10.166;2022-10-16T02:40:18;11.40;99.90
16172;DHT22;8192;53.596;10.166;2022-10-16T02:42:51;12.40;99.90
16172;DHT22;8192;53.596;10.166;2022-10-16T02:45:19;11.30;99.90
16172;DHT22;8192;53.596;10.166;2022-10-16T02:47:46;11.30;99.90
16172;DHT22;8192;53.596;10.166;2022-10-16T02:50:14;11.40;99.90
16172;DHT22;8192;53.596;10.166;2022-10-16T02:52:41;11.30;99.90
16172;DHT22;8192;53.596;10.166;2022-10-16T02:55:09;12.30;99.90
16172;DHT22;8192;53.596;10.166;2022-10-16T02:57:35;11.20;99.90
16172;DHT22;8192;53.596;10.166;2022-10-16T03:00:07;11.80;99.90
16172;DHT22;8192;53.596;10.166;2022-10-16T03:02:34;11.10;99.90
16172;DHT22;8192;53.596;10.166;2022-10-16T03:05:01;12.90;99.90
16172;DHT22;8192;53.596;10.166;2022-10-16T03:07:28;10.90;99.90
16172;DHT22;8192;53.596;10.166;2022-10-16T03:09:56;11.00;99.90
16172;DHT22;8192;53.596;10.166;2022-10-16T03:12:25;10.70;99.90
16172;DHT22;8192;53.596;10.166;2022-10-16T03:14:52;10.70;99.90
16172;DHT22;8192;53.596;10.166;2022-10-16T03:17:21;10.60;99.90
16172;DHT22;8192;53.596;10.166;2022-10-16T03:19:48;10.60;99.90
16172;DHT22;8192;53.596;10.166;2022-10-16T03:22:15;10.60;99.90
16172;DHT22;8192;53.596;10.166;2022-10-16T03:24:42;10.50;99.90
16172;DHT22;8192;53.596;10.166;2022-10-16T03:27:09;10.50;99.90
16172;DHT22;8192;53.596;10.166;2022-10-16T03:29:36;10.50;99.90
16172;DHT22;8192;53.596;10.166;2022-10-16T03:32:03;10.40;99.90
16172;DHT22;8192;53.596;10.166;2022-10-16T03:34:32;10.50;99.90
16172;DHT22;8192;53.596;10.166;2022-10-16T03:37:00;10.80;99.90
16172;DHT22;8192;53.596;10.166;2022-10-16T03:39:27;10.40;99.90
16172;DHT22;8192;53.596;10.166;2022-10-16T03:41:54;10.40;99.90
16172;DHT22;8192;53.596;10.166;2022-10-16T03:44:21;10.40;99.90
16172;DHT22;8192;53.596;10.166;2022-10-16T03:46:50;10.40;99.90
16172;DHT22;8192;53.596;10.166;2022-10-16T03:49:17;10.40;99.90
16172;DHT22;8192;53.596;10.166;2022-10-16T03:51:46;10.50;99.90
16172;DHT22;8192;53.596;10.166;2022-10-16T03:54:12;10.50;99.90
16172;DHT22;8192;53.596;10.166;2022-10-16T03:56:39;10.50;99.90
16172;DHT22;8192;53.596;10.166;2022-10-16T03:59:06;10.50;99.90
16172;DHT22;8192;53.596;10.166;2022-10-16T04:01:33;10.50;99.90
16172;DHT22;8192;53.596;10.166;2022-10-16T04:04:01;10.50;99.90
16172;DHT22;8192;53.596;10.166;2022-10-16T04:06:28;10.60;99.90
16172;DHT22;8192;53.596;10.166;2022-10-16T04:08:56;10.60;99.90
16172;DHT22;8192;53.596;10.166;2022-10-16T04:11:23;10.60;99.90
16172;DHT22;8192;53.596;10.166;2022-10-16T04:13:50;10.60;99.90
16172;DHT22;8192;53.596;10.166;2022-10-16T04:16:17;10.50;99.90
16172;DHT22;8192;53.596;10.166;2022-10-16T04:18:44;10.50;99.90
16172;DHT22;8192;53.596;10.166;2022-10-16T04:21:11;10.50;99.90
16172;DHT22;8192;53.596;10.166;2022-10-16T04:23:38;10.50;99.90
16172;DHT22;8192;53.596;10.166;2022-10-16T04:26:06;10.60;99.90
16172;DHT22;8192;53.596;10.166;2022-10-16T04:28:33;12.00;99.90
16172;DHT22;8192;53.596;10.166;2022-10-16T04:31:00;10.60;99.90
16172;DHT22;8192;53.596;10.166;2022-10-16T04:33:30;10.60;99.90
16172;DHT22;8192;53.596;10.166;2022-10-16T04:35:57;10.60;99.90
16172;DHT22;8192;53.596;10.166;2022-10-16T04:38:24;10.70;99.90
16172;DHT22;8192;53.596;10.166;2022-10-16T04:40:52;10.70;99.90
16172;DHT22;8192;53.596;10.166;2022-10-16T04:43:21;10.60;99.90
16172;DHT22;8192;53.596;10.166;2022-10-16T04:45:48;10.50;99.90
16172;DHT22;8192;53.596;10.166;2022-10-16T04:48:16;10.40;99.90
16172;DHT22;8192;53.596;10.166;2022-10-16T04:50:43;10.40;99.90
16172;DHT22;8192;53.596;10.166;2022-10-16T04:53:10;10.30;99.90
16172;DHT22;8192;53.596;10.166;2022-10-16T04:55:37;10.40;99.90
16172;DHT22;8192;53.596;10.166;2022-10-16T04:58:04;10.20;99.90
16172;DHT22;8192;53.596;10.166;2022-10-16T05:00:35;10.20;99.90
16172;DHT22;8192;53.596;10.166;2022-10-16T05:03:04;10.20;99.90
16172;DHT22;8192;53.596;10.166;2022-10-16T05:05:32;10.20;99.90
16172;DHT22;8192;53.596;10.166;2022-10-16T05:07:59;10.10;99.90
16172;DHT22;8192;53.596;10.166;2022-10-16T05:10:26;10.10;99.90
16172;DHT22;8192;53.596;10.166;2022-10-16T05:12:53;10.10;99.90
16172;DHT22;8192;53.596;10.166;2022-10-16T05:15:20;10.20;99.90
16172;DHT22;8192;53.596;10.166;2022-10-16T05:17:53;10.30;99.90
16172;DHT22;8192;53.596;10.166;2022-10-16T05:20:20;10.20;99.90
16172;DHT22;8192;53.596;10.166;2022-10-16T05:22:47;10.10;99.90
16172;DHT22;8192;53.596;10.166;2022-10-16T05:25:14;10.10;99.90
16172;DHT22;8192;53.596;10.166;2022-10-16T05:27:41;10.20;99.90
16172;DHT22;8192;53.596;10.166;2022-10-16T05:30:09;10.10;99.90
16172;DHT22;8192;53.596;10.166;2022-10-16T05:32:36;10.00;99.90
16172;DHT22;8192;53.596;10.166;2022-10-16T05:35:05;9.90;99.90
16172;DHT22;8192;53.596;10.166;2022-10-16T05:37:33;9.90;99.90
16172;DHT22;8192;53.596;10.166;2022-10-16T05:40:01;9.90;99.90
16172;DHT22;8192;53.596;10.166;2022-10-16T05:42:30;9.90;99.90
16172;DHT22;8192;53.596;10.166;2022-10-16T05:44:57;9.90;99.90
16172;DHT22;8192;53.596;10.166;2022-10-16T05:47:24;9.90;99.90
16172;DHT22;8192;53.596;10.166;2022-10-16T05:49:51;9.90;99.90
16172;DHT22;8192;53.596;10.166;2022-10-16T05:52:20;10.00;99.90
16172;DHT22;8192;53.596;10.166;2022-10-16T05:54:47;10.00;99.90
16172;DHT22;8192;53.596;10.166;2022-10-16T05:57:14;10.00;99.90
16172;DHT22;8192;53.596;10.166;2022-10-16T05:59:41;10.00;99.90
16172;DHT22;8192;53.596;10.166;2022-10-16T06:02:12;10.10;99.90
16172;DHT22;8192;53.596;10.166;2022-10-16T06:04:39;10.20;99.90
16172;DHT22;8192;53.596;10.166;2022-10-16T06:07:06;10.20;99.90
16172;DHT22;8192;53.596;10.166;2022-10-16T06:09:34;10.20;99.90
16172;DHT22;8192;53.596;10.166;2022-10-16T06:12:01;10.20;99.90
16172;DHT22;8192;53.596;10.166;2022-10-16T06:14:28;10.30;99.90
16172;DHT22;8192;53.596;10.166;2022-10-16T06:16:55;10.30;99.90
16172;DHT22;8192;53.596;10.166;2022-10-16T06:19:22;10.30;99.90
16172;DHT22;8192;53.596;10.166;2022-10-16T06:21:49;10.40;99.90
16172;DHT22;8192;53.596;10.166;2022-10-16T06:24:16;10.40;99.90
16172;DHT22;8192;53.596;10.166;2022-10-16T06:26:45;10.40;99.90
16172;DHT22;8192;53.596;10.166;2022-10-16T06:29:12;10.40;99.90
16172;DHT22;8192;53.596;10.166;2022-10-16T06:31:39;10.40;99.90
16172;DHT22;8192;53.596;10.166;2022-10-16T06:34:06;10.30;99.90
16172;DHT22;8192;53.596;10.166;2022-10-16T06:37:04;10.20;99.90
16172;DHT22;8192;53.596;10.166;2022-10-16T06:39:31;10.40;99.90
16172;DHT22;8192;53.596;10.166;2022-10-16T06:42:15;10.10;99.90
16172;DHT22;8192;53.596;10.166;2022-10-16T06:44:43;10.20;99.90
16172;DHT22;8192;53.596;10.166;2022-10-16T06:47:10;11.30;99.90
16172;DHT22;8192;53.596;10.166;2022-10-16T06:49:39;12.10;99.90
16172;DHT22;8192;53.596;10.166;2022-10-16T06:52:08;10.80;99.90
16172;DHT22;8192;53.596;10.166;2022-10-16T06:54:35;11.00;99.90
16172;DHT22;8192;53.596;10.166;2022-10-16T06:57:20;12.10;99.90
16172;DHT22;8192;53.596;10.166;2022-10-16T06:59:47;11.60;99.90
16172;DHT22;8192;53.596;10.166;2022-10-16T07:08:01;12.50;99.90
16172;DHT22;8192;53.596;10.166;2022-10-16T07:10:32;10.90;99.90
16172;DHT22;8192;53.596;10.166;2022-10-16T07:13:01;12.20;99.90
16172;DHT22;8192;53.596;10.166;2022-10-16T07:15:28;12.20;99.90
16172;DHT22;8192;53.596;10.166;2022-10-16T07:20:32;12.40;99.90
16172;DHT22;8192;53.596;10.166;2022-10-16T07:26:22;13.10;99.90
16172;DHT22;8192;53.596;10.166;2022-10-16T07:28:54;13.10;99.90
16172;DHT22;8192;53.596;10.166;2022-10-16T07:37:38;13.60;99.90
16172;DHT22;8192;53.596;10.166;2022-10-16T07:40:06;13.60;99.90
16172;DHT22;8192;53.596;10.166;2022-10-16T07:42:33;13.50;99.90
16172;DHT22;8192;53.596;10.166;2022-10-16T07:47:29;13.40;99.90
16172;DHT22;8192;53.596;10.166;2022-10-16T07:50:06;13.40;99.90
16172;DHT22;8192;53.596;10.166;2022-10-16T07:56:06;13.30;99.90
16172;DHT22;8192;53.596;10.166;2022-10-16T08:02:15;13.60;99.90
16172;DHT22;8192;53.596;10.166;2022-10-16T08:04:43;13.90;99.90
16172;DHT22;8192;53.596;10.166;2022-10-16T08:10:39;14.20;99.90
16172;DHT22;8192;53.596;10.166;2022-10-16T08:13:06;14.20;99.90
16172;DHT22;8192;53.596;10.166;2022-10-16T08:16:05;15.30;99.90
16172;DHT22;8192;53.596;10.166;2022-10-16T08:22:00;14.00;99.90
16172;DHT22;8192;53.596;10.166;2022-10-16T08:30:18;13.70;99.90
16172;DHT22;8192;53.596;10.166;2022-10-16T08:33:11;13.70;99.90
16172;DHT22;8192;53.596;10.166;2022-10-16T08:35:38;12.20;99.90
16172;DHT22;8192;53.596;10.166;2022-10-16T08:38:07;15.90;99.90
16172;DHT22;8192;53.596;10.166;2022-10-16T08:43:35;14.20;99.90
16172;DHT22;8192;53.596;10.166;2022-10-16T08:46:24;15.60;99.90
16172;DHT22;8192;53.596;10.166;2022-10-16T08:52:21;14.80;99.90
16172;DHT22;8192;53.596;10.166;2022-10-16T08:54:52;14.90;99.90
16172;DHT22;8192;53.596;10.166;2022-10-16T08:57:47;15.00;99.90
16172;DHT22;8192;53.596;10.166;2022-10-16T09:03:33;15.30;99.90
16172;DHT22;8192;53.596;10.166;2022-10-16T09:09:29;15.30;99.90
16172;DHT22;8192;53.596;10.166;2022-10-16T09:13:23;15.50;99.90
16172;DHT22;8192;53.596;10.166;2022-10-16T09:16:10;15.60;99.90
16172;DHT22;8192;53.596;10.166;2022-10-16T09:18:43;15.80;99.90
16172;DHT22;8192;53.596;10.166;2022-10-16T09:21:16;16.00;99.90
16172;DHT22;8192;53.596;10.166;2022-10-16T09:23:45;16.20;99.90
16172;DHT22;8192;53.596;10.166;2022-10-16T09:26:13;16.10;99.90
16172;DHT22;8192;53.596;10.166;2022-10-16T09:28:43;16.00;99.90
16172;DHT22;8192;53.596;10.166;2022-10-16T09:31:15;15.80;99.90
16172;DHT22;8192;53.596;10.166;2022-10-16T09:33:45;15.80;99.90
16172;DHT22;8192;53.596;10.166;2022-10-16T09:36:14;15.70;99.90
16172;DHT22;8192;53.596;10.166;2022-10-16T09:38:41;15.90;99.90
16172;DHT22;8192;53.596;10.166;2022-10-16T09:41:15;16.00;99.90
16172;DHT22;8192;53.596;10.166;2022-10-16T09:43:52;16.10;99.90
16172;DHT22;8192;53.596;10.166;2022-10-16T09:46:26;16.10;99.90
16172;DHT22;8192;53.596;10.166;2022-10-16T09:48:55;16.10;99.90
16172;DHT22;8192;53.596;10.166;2022-10-16T09:51:25;16.10;99.90
16172;DHT22;8192;53.596;10.166;2022-10-16T09:53:58;16.20;99.90
16172;DHT22;8192;53.596;10.166;2022-10-16T09:56:27;16.30;99.90
16172;DHT22;8192;53.596;10.166;2022-10-16T09:58:57;16.40;99.90
16172;DHT22;8192;53.596;10.166;2022-10-16T10:01:30;16.40;99.90
16172;DHT22;8192;53.596;10.166;2022-10-16T10:03:58;16.40;99.90
16172;DHT22;8192;53.596;10.166;2022-10-16T10:06:30;16.40;99.90
16172;DHT22;8192;53.596;10.166;2022-10-16T10:09:00;16.50;99.90
16172;DHT22;8192;53.596;10.166;2022-10-16T10:11:56;16.40;99.90
16172;DHT22;8192;53.596;10.166;2022-10-16T10:14:44;16.50;99.90
16172;DHT22;8192;53.596;10.166;2022-10-16T10:17:15;16.50;99.90
16172;DHT22;8192;53.596;10.166;2022-10-16T10:23:20;16.60;99.90
16172;DHT22;8192;53.596;10.166;2022-10-16T10:26:16;16.70;99.90
16172;DHT22;8192;53.596;10.166;2022-10-16T10:28:54;16.70;99.90
16172;DHT22;8192;53.596;10.166;2022-10-16T10:31:31;16.70;99.90
16172;DHT22;8192;53.596;10.166;2022-10-16T10:34:31;16.70;99.90
16172;DHT22;8192;53.596;10.166;2022-10-16T10:37:07;16.50;99.90
16172;DHT22;8192;53.596;10.166;2022-10-16T10:39:52;16.50;99.90
16172;DHT22;8192;53.596;10.166;2022-10-16T10:42:27;16.60;99.90
16172;DHT22;8192;53.596;10.166;2022-10-16T10:45:11;16.60;99.90
16172;DHT22;8192;53.596;10.166;2022-10-16T10:47:47;16.70;99.90
16172;DHT22;8192;53.596;10.166;2022-10-16T10:50:23;16.70;99.90
16172;DHT22;8192;53.596;10.166;2022-10-16T10:53:01;16.70;99.90
16172;DHT22;8192;53.596;10.166;2022-10-16T10:55:58;16.70;99.90
16172;DHT22;8192;53.596;10.166;2022-10-16T10:58:42;17.00;99.90
16172;DHT22;8192;53.596;10.166;2022-10-16T11:01:16;17.20;99.90
16172;DHT22;8192;53.596;10.166;2022-10-16T11:03:58;17.30;99.90
16172;DHT22;8192;53.596;10.166;2022-10-16T11:06:45;17.10;99.90
16172;DHT22;8192;53.596;10.166;2022-10-16T11:09:17;16.50;99.90
16172;DHT22;8192;53.596;10.166;2022-10-16T11:11:47;17.00;99.90
16172;DHT22;8192;53.596;10.166;2022-10-16T11:14:19;18.00;99.90
16172;DHT22;8192;53.596;10.166;2022-10-16T11:16:51;16.90;99.90
16172;DHT22;8192;53.596;10.166;2022-10-16T11:19:29;16.90;99.90
16172;DHT22;8192;53.596;10.166;2022-10-16T11:22:04;17.00;99.90
16172;DHT22;8192;53.596;10.166;2022-10-16T11:24:40;17.10;99.90
16172;DHT22;8192;53.596;10.166;2022-10-16T11:27:14;17.50;99.90
16172;DHT22;8192;53.596;10.166;2022-10-16T11:29:46;17.20;99.90
16172;DHT22;8192;53.596;10.166;2022-10-16T11:32:20;17.30;99.90
16172;DHT22;8192;53.596;10.166;2022-10-16T11:34:53;17.40;99.90
16172;DHT22;8192;53.596;10.166;2022-10-16T11:37:23;17.40;99.90
16172;DHT22;8192;53.596;10.166;2022-10-16T11:40:03;17.50;99.90
16172;DHT22;8192;53.596;10.166;2022-10-16T11:43:06;17.50;99.90
16172;DHT22;8192;53.596;10.166;2022-10-16T11:45:41;17.60;99.90
16172;DHT22;8192;53.596;10.166;2022-10-16T11:48:18;17.70;99.90
16172;DHT22;8192;53.596;10.166;2022-10-16T11:50:52;17.80;99.90
16172;DHT22;8192;53.596;10.166;2022-10-16T11:53:27;17.80;99.90
16172;DHT22;8192;53.596;10.166;2022-10-16T11:55:55;17.80;99.90
16172;DHT22;8192;53.596;10.166;2022-10-16T11:58:26;18.00;99.90
16172;DHT22;8192;53.596;10.166;2022-10-16T12:01:00;18.00;99.90
16172;DHT22;8192;53.596;10.166;2022-10-16T12:03:32;18.10;99.90
16172;DHT22;8192;53.596;10.166;2022-10-16T12:06:30;18.20;99.90
16172;DHT22;8192;53.596;10.166;2022-10-16T12:09:01;18.10;99.90
16172;DHT22;8192;53.596;10.166;2022-10-16T12:11:34;18.20;99.90
16172;DHT22;8192;53.596;10.166;2022-10-16T12:14:21;17.90;99.90
16172;DHT22;8192;53.596;10.166;2022-10-16T12:16:54;17.60;99.90
16172;DHT22;8192;53.596;10.166;2022-10-16T12:22:29;17.60;99.90
16172;DHT22;8192;53.596;10.166;2022-10-16T12:24:57;17.60;99.90
16172;DHT22;8192;53.596;10.166;2022-10-16T12:27:28;17.60;99.90
16172;DHT22;8192;53.596;10.166;2022-10-16T12:29:57;17.80;99.90
16172;DHT22;8192;53.596;10.166;2022-10-16T12:32:30;17.90;99.90
16172;DHT22;8192;53.596;10.166;2022-10-16T12:35:03;18.00;99.90
16172;DHT22;8192;53.596;10.166;2022-10-16T12:37:34;18.10;99.90
16172;DHT22;8192;53.596;10.166;2022-10-16T12:40:12;18.20;99.90
16172;DHT22;8192;53.596;10.166;2022-10-16T12:42:40;18.10;99.90
16172;DHT22;8192;53.596;10.166;2022-10-16T12:45:26;17.90;99.90
16172;DHT22;8192;53.596;10.166;2022-10-16T12:47:54;17.70;99.90
16172;DHT22;8192;53.596;10.166;2022-10-16T12:50:26;17.60;99.90
16172;DHT22;8192;53.596;10.166;2022-10-16T12:52:54;17.50;99.90
16172;DHT22;8192;53.596;10.166;2022-10-16T12:55:23;17.50;99.90
16172;DHT22;8192;53.596;10.166;2022-10-16T12:58:04;17.40;99.90
16172;DHT22;8192;53.596;10.166;2022-10-16T13:00:41;17.40;99.90
16172;DHT22;8192;53.596;10.166;2022-10-16T13:03:36;17.50;99.90
16172;DHT22;8192;53.596;10.166;2022-10-16T13:06:17;17.60;99.90
16172;DHT22;8192;53.596;10.166;2022-10-16T13:09:06;17.80;99.90
16172;DHT22;8192;53.596;10.166;2022-10-16T13:11:47;17.40;99.90
16172;DHT22;8192;53.596;10.166;2022-10-16T13:14:52;17.40;99.90
16172;DHT22;8192;53.596;10.166;2022-10-16T13:17:27;17.50;99.90
16172;DHT22;8192;53.596;10.166;2022-10-16T13:20:01;17.50;99.90
16172;DHT22;8192;53.596;10.166;2022-10-16T13:22:33;17.70;99.90
16172;DHT22;8192;53.596;10.166;2022-10-16T13:25:16;17.60;99.90
16172;DHT22;8192;53.596;10.166;2022-10-16T13:27:52;17.30;99.90
16172;DHT22;8192;53.596;10.166;2022-10-16T13:30:26;17.40;99.90
16172;DHT22;8192;53.596;10.166;2022-10-16T13:33:00;17.50;99.90
16172;DHT22;8192;53.596;10.166;2022-10-16T13:35:29;17.60;99.90
16172;DHT22;8192;53.596;10.166;2022-10-16T13:38:05;17.50;99.90
16172;DHT22;8192;53.596;10.166;2022-10-16T13:40:33;17.50;99.90
16172;DHT22;8192;53.596;10.166;2022-10-16T13:43:00;17.40;99.90
16172;DHT22;8192;53.596;10.166;2022-10-16T13:45:27;17.40;99.90
16172;DHT22;8192;53.596;10.166;2022-10-16T13:48:02;17.50;99.90
16172;DHT22;8192;53.596;10.166;2022-10-16T13:50:29;17.60;99.90
16172;DHT22;8192;53.596;10.166;2022-10-16T13:53:19;17.60;99.90
16172;DHT22;8192;53.596;10.166;2022-10-16T13:55:47;17.60;99.90
16172;DHT22;8192;53.596;10.166;2022-10-16T13:58:14;17.70;99.90
16172;DHT22;8192;53.596;10.166;2022-10-16T14:00:53;17.80;99.90
16172;DHT22;8192;53.596;10.166;2022-10-16T14:03:20;17.90;99.90
16172;DHT22;8192;53.596;10.166;2022-10-16T14:05:49;18.00;99.90
16172;DHT22;8192;53.596;10.166;2022-10-16T14:11:46;17.80;99.90
16172;DHT22;8192;53.596;10.166;2022-10-16T14:14:17;17.80;99.90
16172;DHT22;8192;53.596;10.166;2022-10-16T14:16:44;17.90;99.90
16172;DHT22;8192;53.596;10.166;2022-10-16T14:19:19;18.10;99.90
16172;DHT22;8192;53.596;10.166;2022-10-16T14:21:47;18.10;99.90
16172;DHT22;8192;53.596;10.166;2022-10-16T14:24:25;18.10;99.90
16172;DHT22;8192;53.596;10.166;2022-10-16T14:26:54;18.10;99.90
16172;DHT22;8192;53.596;10.166;2022-10-16T14:29:23;18.10;99.90
16172;DHT22;8192;53.596;10.166;2022-10-16T14:31:57;18.10;99.90
16172;DHT22;8192;53.596;10.166;2022-10-16T14:34:25;18.10;99.90
16172;DHT22;8192;53.596;10.166;2022-10-16T14:36:53;18.00;99.90
16172;DHT22;8192;53.596;10.166;2022-10-16T14:39:22;18.00;99.90
16172;DHT22;8192;53.596;10.166;2022-10-16T14:41:51;18.00;99.90
16172;DHT22;8192;53.596;10.166;2022-10-16T14:44:28;17.90;99.90
16172;DHT22;8192;53.596;10.166;2022-10-16T14:46:56;17.80;99.90
16172;DHT22;8192;53.596;10.166;2022-10-16T14:49:25;17.80;99.90
16172;DHT22;8192;53.596;10.166;2022-10-16T14:51:55;17.70;99.90
16172;DHT22;8192;53.596;10.166;2022-10-16T14:54:22;17.40;99.90
16172;DHT22;8192;53.596;10.166;2022-10-16T14:56:51;17.20;99.90
16172;DHT22;8192;53.596;10.166;2022-10-16T14:59:27;17.10;99.90
16172;DHT22;8192;53.596;10.166;2022-10-16T15:01:54;17.10;99.90
16172;DHT22;8192;53.596;10.166;2022-10-16T15:04:22;17.80;99.90
16172;DHT22;8192;53.596;10.166;2022-10-16T15:06:49;17.40;99.90
16172;DHT22;8192;53.596;10.166;2022-10-16T15:09:16;17.10;99.90
16172;DHT22;8192;53.596;10.166;2022-10-16T15:11:43;16.70;99.90
16172;DHT22;8192;53.596;10.166;2022-10-16T15:14:11;16.70;99.90
16172;DHT22;8192;53.596;10.166;2022-10-16T15:16:40;17.00;99.90
16172;DHT22;8192;53.596;10.166;2022-10-16T15:19:07;16.90;99.90
16172;DHT22;8192;53.596;10.166;2022-10-16T15:21:34;16.90;99.90
16172;DHT22;8192;53.596;10.166;2022-10-16T15:26:42;16.90;99.90
16172;DHT22;8192;53.596;10.166;2022-10-16T15:29:11;16.80;99.90
16172;DHT22;8192;53.596;10.166;2022-10-16T15:31:39;16.50;99.90
16172;DHT22;8192;53.596;10.166;2022-10-16T15:34:08;16.50;99.90
16172;DHT22;8192;53.596;10.166;2022-10-16T15:36:37;16.30;99.90
16172;DHT22;8192;53.596;10.166;2022-10-16T15:39:10;15.70;99.90
16172;DHT22;8192;53.596;10.166;2022-10-16T15:41:40;16.00;99.90
16172;DHT22;8192;53.596;10.166;2022-10-16T15:44:07;18.30;99.90
16172;DHT22;8192;53.596;10.166;2022-10-16T15:49:58;15.70;99.90
16172;DHT22;8192;53.596;10.166;2022-10-16T15:52:26;15.50;99.90
16172;DHT22;8192;53.596;10.166;2022-10-16T15:54:54;17.50;99.90
16172;DHT22;8192;53.596;10.166;2022-10-16T15:57:21;15.40;99.90
16172;DHT22;8192;53.596;10.166;2022-10-16T16:00:17;14.20;99.90
16172;DHT22;8192;53.596;10.166;2022-10-16T16:02:50;15.30;99.90
16172;DHT22;8192;53.596;10.166;2022-10-16T16:08:42;15.40;99.90
16172;DHT22;8192;53.596;10.166;2022-10-16T16:11:10;15.30;99.90
16172;DHT22;8192;53.596;10.166;2022-10-16T16:13:39;15.30;99.90
16172;DHT22;8192;53.596;10.166;2022-10-16T16:16:41;15.20;99.90
16172;DHT22;8192;53.596;10.166;2022-10-16T16:19:09;14.90;99.90
16172;DHT22;8192;53.596;10.166;2022-10-16T16:21:36;14.60;99.90
16172;DHT22;8192;53.596;10.166;2022-10-16T16:24:05;14.40;99.90
16172;DHT22;8192;53.596;10.166;2022-10-16T16:29:56;14.00;99.90
16172;DHT22;8192;53.596;10.166;2022-10-16T16:32:23;13.80;99.90
16172;DHT22;8192;53.596;10.166;2022-10-16T16:34:50;13.70;99.90
16172;DHT22;8192;53.596;10.166;2022-10-16T16:37:18;12.80;99.90
16172;DHT22;8192;53.596;10.166;2022-10-16T16:39:46;12.80;99.90
16172;DHT22;8192;53.596;10.166;2022-10-16T16:42:13;13.60;99.90
16172;DHT22;8192;53.596;10.166;2022-10-16T16:44:41;13.90;99.90
16172;DHT22;8192;53.596;10.166;2022-10-16T16:47:09;12.70;99.90
16172;DHT22;8192;53.596;10.166;2022-10-16T16:49:36;12.50;99.90
16172;DHT22;8192;53.596;10.166;2022-10-16T16:52:04;12.30;99.90
16172;DHT22;8192;53.596;10.166;2022-10-16T16:54:31;13.10;99.90
16172;DHT22;8192;53.596;10.166;2022-10-16T16:56:59;12.00;99.90
16172;DHT22;8192;53.596;10.166;2022-10-16T16:59:26;11.90;99.90
16172;DHT22;8192;53.596;10.166;2022-10-16T17:01:53;13.90;99.90
16172;DHT22;8192;53.596;10.166;2022-10-16T17:04:20;11.60;99.90
16172;DHT22;8192;53.596;10.166;2022-10-16T17:06:47;12.30;99.90
16172;DHT22;8192;53.596;10.166;2022-10-16T17:09:18;11.40;99.90
16172;DHT22;8192;53.596;10.166;2022-10-16T17:11:47;12.60;99.90
16172;DHT22;8192;53.596;10.166;2022-10-16T17:14:16;11.20;99.90
16172;DHT22;8192;53.596;10.166;2022-10-16T17:16:45;11.10;99.90
16172;DHT22;8192;53.596;10.166;2022-10-16T17:19:16;11.10;99.90